createdAt,value
2024-01-16T00:01:19.563Z,99886.56
2024-01-16T00:03:48.817Z,99896.16
2024-01-16T00:06:17.709Z,99899.63
2024-01-16T00:08:46.387Z,99895.41
2024-01-16T00:11:17.255Z,99890.91
2024-01-16T00:13:45.940Z,99888.38
2024-01-16T00:16:14.605Z,99897.81
2024-01-16T00:18:44.390Z,99900.97
2024-01-16T00:21:13.943Z,99904.38
2024-01-16T00:23:42.641Z,99906.31
2024-01-16T00:26:21.668Z,99911.81
2024-01-16T00:28:51.659Z,99918.66
2024-01-16T00:31:22.502Z,99912.28
2024-01-16T00:33:51.028Z,99912.41
2024-01-16T00:36:20.056Z,99915.25
2024-01-16T00:38:48.510Z,99909.13
2024-01-16T00:41:19.517Z,99905.22
2024-01-16T00:43:48.343Z,99907.66
2024-01-16T00:46:18.632Z,99903.53
2024-01-16T00:48:47.852Z,99911.56
2024-01-16T00:51:16.556Z,99913.72
2024-01-16T00:53:46.198Z,99910.06
2024-01-16T00:56:14.719Z,99920.44
2024-01-16T00:58:43.656Z,99927.09
2024-01-16T01:01:13.736Z,99922.59
2024-01-16T01:03:44.153Z,99928.03
2024-01-16T01:06:13.975Z,99937.66
2024-01-16T01:08:42.886Z,99932.13
2024-01-16T01:11:16.276Z,99931.44
2024-01-16T01:13:47.310Z,99940.06
2024-01-16T01:16:15.836Z,99932.16
2024-01-16T01:18:45.845Z,99943.56
2024-01-16T01:21:14.644Z,99952.09
2024-01-16T01:23:43.972Z,99939.81
2024-01-16T01:26:15.028Z,99951.00
2024-01-16T01:28:44.009Z,99948.31
2024-01-16T01:31:13.131Z,99953.06
2024-01-16T01:33:42.969Z,99954.69
2024-01-16T01:36:13.119Z,99956.03
2024-01-16T01:38:41.938Z,99957.78
2024-01-16T01:41:13.159Z,99958.00
2024-01-16T01:43:41.920Z,99956.22
2024-01-16T01:46:18.418Z,99954.59
2024-01-16T01:48:49.081Z,99961.28
2024-01-16T01:51:21.708Z,99961.44
2024-01-16T01:53:53.645Z,99966.66
2024-01-16T01:56:23.254Z,99963.25
2024-01-16T01:58:59.937Z,99982.31
2024-01-16T02:01:30.667Z,99970.66
2024-01-16T02:04:01.572Z,99975.66
2024-01-16T02:06:31.827Z,99978.63
2024-01-16T02:09:01.361Z,99971.69
2024-01-16T02:11:30.260Z,99973.38
2024-01-16T02:13:58.817Z,99978.66
2024-01-16T02:16:29.041Z,99981.31
2024-01-16T02:18:58.189Z,99983.13
2024-01-16T02:21:33.890Z,99984.88
2024-01-16T02:24:04.112Z,99979.59
2024-01-16T02:26:36.160Z,99971.78
2024-01-16T02:29:05.852Z,99980.25
2024-01-16T02:31:34.921Z,99976.28
2024-01-16T02:34:05.640Z,99981.22
2024-01-16T02:36:35.045Z,99976.81
2024-01-16T02:39:07.874Z,99983.88
2024-01-16T02:41:37.221Z,99988.03
2024-01-16T02:44:07.394Z,99983.78
2024-01-16T02:46:36.209Z,99980.25
2024-01-16T02:49:06.501Z,99966.88
2024-01-16T02:51:34.936Z,99958.13
2024-01-16T02:54:04.980Z,99960.50
2024-01-16T02:56:33.780Z,99962.38
2024-01-16T02:59:02.262Z,99967.63
2024-01-16T03:01:31.373Z,99976.09
2024-01-16T03:03:59.845Z,99974.50
2024-01-16T03:06:30.184Z,99975.22
2024-01-16T03:08:59.302Z,99964.94
2024-01-16T03:11:31.285Z,99965.63
2024-01-16T03:14:00.774Z,99971.13
2024-01-16T03:16:29.951Z,99970.03
2024-01-16T03:18:58.607Z,99967.63
2024-01-16T03:21:27.356Z,99964.78
2024-01-16T03:23:56.185Z,99965.53
2024-01-16T03:26:24.743Z,99961.44
2024-01-16T03:28:55.944Z,99963.22
2024-01-16T03:31:24.670Z,99961.63
2024-01-16T03:33:53.355Z,99969.59
2024-01-16T03:36:21.938Z,99960.78
2024-01-16T03:38:50.521Z,99963.97
2024-01-16T03:41:19.382Z,99964.28
2024-01-16T03:43:48.258Z,99971.03
2024-01-16T03:46:18.526Z,99966.72
2024-01-16T03:48:46.999Z,99970.06
2024-01-16T03:51:16.980Z,99966.63
2024-01-16T03:53:45.562Z,99967.25
2024-01-16T03:56:15.024Z,99974.25
2024-01-16T03:58:44.169Z,99980.16
2024-01-16T04:01:14.183Z,99975.81
2024-01-16T04:03:44.455Z,99971.56
2024-01-16T04:06:19.878Z,99977.69
2024-01-16T04:08:48.682Z,99975.13
2024-01-16T04:11:17.541Z,99977.88
2024-01-16T04:13:47.974Z,99978.72
2024-01-16T04:16:16.675Z,99976.97
2024-01-16T04:18:46.823Z,99971.13
2024-01-16T04:21:18.015Z,99974.59
2024-01-16T04:23:48.858Z,99973.41
2024-01-16T04:26:17.424Z,99969.31
2024-01-16T04:28:45.945Z,99964.09
2024-01-16T04:31:14.597Z,99963.22
2024-01-16T04:33:43.261Z,99963.13
2024-01-16T04:36:13.673Z,99960.69
2024-01-16T04:38:42.953Z,99960.81
2024-01-16T04:41:11.524Z,99962.50
2024-01-16T04:43:40.097Z,99965.63
2024-01-16T04:46:08.575Z,99969.22
2024-01-16T04:48:38.514Z,99964.72
2024-01-16T04:51:07.605Z,99963.09
2024-01-16T04:53:39.398Z,99968.50
2024-01-16T04:56:08.044Z,99966.47
2024-01-16T04:58:36.778Z,99966.41
2024-01-16T05:01:06.169Z,99968.53
2024-01-16T05:03:35.295Z,99965.78
2024-01-16T05:06:04.440Z,99963.81
2024-01-16T05:08:33.175Z,99961.25
2024-01-16T05:11:03.601Z,99963.97
2024-01-16T05:13:32.139Z,99970.06
2024-01-16T05:16:02.415Z,99965.84
2024-01-16T05:18:32.067Z,99965.63
2024-01-16T05:21:00.977Z,99959.59
2024-01-16T05:23:29.870Z,99961.34
2024-01-16T05:26:00.343Z,99960.66
2024-01-16T05:28:30.640Z,99958.13
2024-01-16T05:30:59.211Z,99954.59
2024-01-16T05:33:28.213Z,99947.88
2024-01-16T05:35:59.358Z,99943.63
2024-01-16T05:38:29.871Z,99947.84
2024-01-16T05:40:58.880Z,99943.56
2024-01-16T05:43:29.910Z,99938.50
2024-01-16T05:45:59.643Z,99946.13
2024-01-16T05:48:29.060Z,99941.91
2024-01-16T05:50:58.531Z,99933.84
2024-01-16T05:53:27.079Z,99936.44
2024-01-16T05:55:55.844Z,99919.41
2024-01-16T05:58:24.664Z,99919.50
2024-01-16T06:00:53.416Z,99930.28
2024-01-16T06:03:23.487Z,99930.53
2024-01-16T06:05:52.100Z,99928.78
2024-01-16T06:08:21.336Z,99930.72
2024-01-16T06:10:49.806Z,99927.16
2024-01-16T06:13:20.306Z,99925.28
2024-01-16T06:15:49.084Z,99934.19
2024-01-16T06:18:17.820Z,99927.16
2024-01-16T06:20:47.920Z,99929.13
2024-01-16T06:23:16.601Z,99928.91
2024-01-16T06:25:45.304Z,99933.78
2024-01-16T06:28:14.254Z,99927.84
2024-01-16T06:30:43.258Z,99933.38
2024-01-16T06:33:11.833Z,99924.63
2024-01-16T06:35:41.066Z,99924.09
2024-01-16T06:38:11.055Z,99934.09
2024-01-16T06:40:39.986Z,99925.59
2024-01-16T06:43:08.530Z,99926.22
2024-01-16T06:45:37.530Z,99937.88
2024-01-16T06:48:07.017Z,99935.44
2024-01-16T06:50:35.924Z,99943.81
2024-01-16T06:53:04.875Z,99941.59
2024-01-16T06:55:35.077Z,99939.75
2024-01-16T06:58:03.809Z,99944.69
2024-01-16T07:00:32.810Z,99948.91
2024-01-16T07:03:01.598Z,99948.00
2024-01-16T07:05:31.852Z,99949.66
2024-01-16T07:08:01.078Z,99950.38
2024-01-16T07:10:29.981Z,99945.88
2024-01-16T07:13:00.267Z,99953.81
2024-01-16T07:15:28.838Z,99954.59
2024-01-16T07:17:57.540Z,99966.47
2024-01-16T07:20:26.525Z,99968.19
2024-01-16T07:22:55.375Z,99969.91
2024-01-16T07:25:25.908Z,99977.28
2024-01-16T07:27:54.279Z,99974.03
2024-01-16T07:30:25.860Z,99980.53
2024-01-16T07:32:55.176Z,99988.94
2024-01-16T07:35:23.758Z,99980.72
2024-01-16T07:37:54.873Z,99977.28
2024-01-16T07:40:24.959Z,99994.28
2024-01-16T07:42:53.674Z,99992.72
2024-01-16T07:45:23.523Z,99996.78
2024-01-16T07:47:52.073Z,100002.00
2024-01-16T07:50:21.081Z,100000.34
2024-01-16T07:52:49.732Z,99999.53
2024-01-16T07:55:21.454Z,100000.22
2024-01-16T07:57:52.898Z,100001.22
2024-01-16T08:00:23.573Z,100006.28
2024-01-16T08:02:53.781Z,100001.22
2024-01-16T08:05:23.086Z,99996.00
2024-01-16T08:07:51.640Z,100003.78
2024-01-16T08:10:20.641Z,100003.81
2024-01-16T08:12:49.056Z,99997.81
2024-01-16T08:15:18.218Z,100003.63
2024-01-16T08:17:49.356Z,100004.56
2024-01-16T08:20:18.345Z,99999.47
2024-01-16T08:22:47.236Z,100008.66
2024-01-16T08:25:15.858Z,100001.22
2024-01-16T08:27:45.177Z,99994.41
2024-01-16T08:30:16.140Z,99997.66
2024-01-16T08:32:44.733Z,99996.19
2024-01-16T08:35:14.878Z,99997.78
2024-01-16T08:37:43.636Z,100004.56
2024-01-16T08:40:14.019Z,100009.75
2024-01-16T08:42:43.614Z,99998.56
2024-01-16T08:45:12.922Z,100011.34
2024-01-16T08:47:41.658Z,100021.78
2024-01-16T08:50:11.213Z,100018.19
2024-01-16T08:52:41.526Z,100018.09
2024-01-16T08:55:11.227Z,100020.06
2024-01-16T08:57:41.352Z,100021.50
2024-01-16T09:00:11.834Z,100024.75
2024-01-16T09:02:40.249Z,100017.31
2024-01-16T09:05:09.664Z,100024.56
2024-01-16T09:07:38.510Z,100028.47
2024-01-16T09:10:12.168Z,100030.19
2024-01-16T09:12:40.600Z,100020.00
2024-01-16T09:15:10.976Z,100029.19
2024-01-16T09:17:41.095Z,100028.53
2024-01-16T09:20:11.451Z,100030.25
2024-01-16T09:22:39.971Z,100038.53
2024-01-16T09:25:10.539Z,100039.75
2024-01-16T09:27:39.089Z,100026.88
2024-01-16T09:30:09.670Z,100026.78
2024-01-16T09:32:38.849Z,100023.91
2024-01-16T09:35:10.517Z,100027.84
2024-01-16T09:37:41.262Z,100025.00
2024-01-16T09:40:14.826Z,100030.44
2024-01-16T09:42:43.613Z,100019.69
2024-01-16T09:45:13.115Z,100029.38
2024-01-16T09:47:42.412Z,100016.31
2024-01-16T09:50:12.190Z,100019.09
2024-01-16T09:52:41.059Z,100026.50
2024-01-16T09:55:12.189Z,100033.28
2024-01-16T09:57:43.318Z,100030.00
2024-01-16T10:00:13.783Z,100021.94
2024-01-16T10:02:43.357Z,100022.09
2024-01-16T10:05:14.390Z,100024.56
2024-01-16T10:07:45.394Z,100018.41
2024-01-16T10:10:21.717Z,100016.28
2024-01-16T10:12:57.593Z,100018.94
2024-01-16T10:15:26.696Z,100009.84
2024-01-16T10:17:55.504Z,100001.97
2024-01-16T10:20:35.927Z,99991.81
2024-01-16T10:23:05.830Z,100002.84
2024-01-16T10:25:38.978Z,100000.31
2024-01-16T10:28:11.649Z,100001.91
2024-01-16T10:30:40.243Z,99996.69
2024-01-16T10:33:19.600Z,100001.88
2024-01-16T10:35:48.467Z,99997.63
2024-01-16T10:38:24.697Z,99987.44
2024-01-16T10:41:11.697Z,99995.53
2024-01-16T10:43:40.656Z,99985.66
2024-01-16T10:46:17.597Z,99978.13
2024-01-16T10:49:00.319Z,99976.81
2024-01-16T10:51:31.161Z,99978.81
2024-01-16T10:54:03.055Z,99981.38
2024-01-16T10:56:34.292Z,99980.56
2024-01-16T10:59:14.682Z,99976.16
2024-01-16T11:01:48.180Z,99984.69
2024-01-16T11:04:17.807Z,99981.06
2024-01-16T11:06:47.472Z,99987.81
2024-01-16T11:09:17.529Z,99968.84
2024-01-16T11:11:49.641Z,99969.59
2024-01-16T11:14:18.555Z,99965.94
2024-01-16T11:16:50.131Z,99959.72
2024-01-16T11:19:37.770Z,99960.06
2024-01-16T11:22:10.469Z,99955.72
2024-01-16T11:24:39.231Z,99966.16
2024-01-16T11:27:09.531Z,99966.06
2024-01-16T11:29:39.726Z,99972.16
2024-01-16T11:32:18.566Z,99974.03
2024-01-16T11:35:00.019Z,99960.09
2024-01-16T11:37:33.852Z,99960.28
2024-01-16T11:40:34.740Z,99964.25
2024-01-16T11:43:39.565Z,99971.63
2024-01-16T11:46:10.645Z,99967.09
2024-01-16T11:48:40.822Z,99972.03
2024-01-16T11:51:26.348Z,99966.41
2024-01-16T11:53:54.918Z,99960.38
2024-01-16T11:56:56.524Z,99956.88
2024-01-16T12:00:00.308Z,99954.41
2024-01-16T12:02:45.093Z,99950.34
2024-01-16T12:05:14.260Z,99949.09
2024-01-16T12:07:50.768Z,99935.00
2024-01-16T12:10:20.775Z,99932.25
2024-01-16T12:12:50.878Z,99933.09
2024-01-16T12:15:22.862Z,99932.44
2024-01-16T12:17:57.368Z,99927.38
2024-01-16T12:20:29.228Z,99927.44
2024-01-16T12:23:00.031Z,99926.94
2024-01-16T12:25:59.916Z,99918.84
2024-01-16T12:28:31.382Z,99918.75
2024-01-16T12:31:04.220Z,99906.53
2024-01-16T12:33:33.796Z,99902.19
2024-01-16T12:36:12.052Z,99891.94
2024-01-16T12:38:40.938Z,99901.75
2024-01-16T12:41:12.069Z,99898.13
2024-01-16T12:43:41.982Z,99899.03
2024-01-16T12:46:14.460Z,99893.88
2024-01-16T12:48:53.049Z,99877.38
2024-01-16T12:51:28.975Z,99882.44
2024-01-16T12:54:12.336Z,99872.44
2024-01-16T12:56:41.072Z,99884.72
2024-01-16T12:59:14.086Z,99890.75
2024-01-16T13:01:47.850Z,99883.13
2024-01-16T13:04:20.636Z,99878.94
2024-01-16T13:06:50.201Z,99877.72
2024-01-16T13:09:21.010Z,99878.06
2024-01-16T13:11:53.282Z,99883.69
2024-01-16T13:14:23.564Z,99881.19
2024-01-16T13:16:56.932Z,99882.50
2024-01-16T13:19:30.451Z,99884.75
2024-01-16T13:22:00.983Z,99882.00
2024-01-16T13:24:29.604Z,99884.09
2024-01-16T13:26:58.384Z,99883.69
2024-01-16T13:29:27.260Z,99884.38
2024-01-16T13:31:57.716Z,99877.00
2024-01-16T13:34:27.214Z,99873.63
2024-01-16T13:37:15.034Z,99870.06
2024-01-16T13:39:45.535Z,99868.72
2024-01-16T13:42:14.336Z,99860.72
2024-01-16T13:44:42.830Z,99866.44
2024-01-16T13:47:15.957Z,99863.19
2024-01-16T13:49:46.509Z,99862.53
2024-01-16T13:52:15.571Z,99857.94
2024-01-16T13:54:46.342Z,99864.03
2024-01-16T13:57:15.169Z,99852.06
2024-01-16T13:59:43.681Z,99862.50
2024-01-16T14:02:13.941Z,99851.94
2024-01-16T14:04:42.893Z,99848.97
2024-01-16T14:07:14.224Z,99842.63
2024-01-16T14:09:45.337Z,99837.16
2024-01-16T14:12:16.019Z,99832.50
2024-01-16T14:14:45.436Z,99845.25
2024-01-16T14:17:15.411Z,99844.13
2024-01-16T14:19:44.310Z,99828.72
2024-01-16T14:22:12.959Z,99833.84
2024-01-16T14:24:42.184Z,99842.31
2024-01-16T14:27:11.836Z,99844.69
2024-01-16T14:29:41.366Z,99844.00
2024-01-16T14:32:11.290Z,99830.81
2024-01-16T14:34:41.255Z,99838.28
2024-01-16T14:37:11.341Z,99831.19
2024-01-16T14:39:40.301Z,99837.41
2024-01-16T14:42:09.193Z,99850.88
2024-01-16T14:44:37.647Z,99839.22
2024-01-16T14:47:09.841Z,99839.47
2024-01-16T14:49:40.083Z,99837.84
2024-01-16T14:52:12.419Z,99835.59
2024-01-16T14:54:41.637Z,99839.31
2024-01-16T14:57:11.456Z,99841.31
2024-01-16T14:59:41.098Z,99838.91
2024-01-16T15:02:14.129Z,99834.69
2024-01-16T15:04:47.240Z,99841.53
2024-01-16T15:07:18.185Z,99832.19
2024-01-16T15:09:46.804Z,99837.28
2024-01-16T15:12:17.186Z,99833.38
2024-01-16T15:14:46.325Z,99825.16
2024-01-16T15:17:15.186Z,99824.94
2024-01-16T15:19:46.121Z,99819.06
2024-01-16T15:22:18.162Z,99813.88
2024-01-16T15:24:47.403Z,99811.97
2024-01-16T15:27:20.033Z,99811.19
2024-01-16T15:29:49.480Z,99811.09
2024-01-16T15:32:18.372Z,99812.81
2024-01-16T15:34:48.800Z,99805.31
2024-01-16T15:37:20.365Z,99809.41
2024-01-16T15:39:49.276Z,99811.09
2024-01-16T15:42:19.914Z,99816.25
2024-01-16T15:44:49.165Z,99809.34
2024-01-16T15:47:18.127Z,99808.63
2024-01-16T15:49:46.933Z,99822.06
2024-01-16T15:52:16.066Z,99825.91
2024-01-16T15:54:48.199Z,99830.28
2024-01-16T15:57:17.208Z,99831.06
2024-01-16T15:59:47.261Z,99836.09
2024-01-16T16:02:17.010Z,99828.59
2024-01-16T16:04:45.853Z,99830.28
2024-01-16T16:07:14.806Z,99825.75
2024-01-16T16:09:45.656Z,99836.09
2024-01-16T16:12:16.844Z,99843.41
2024-01-16T16:14:47.949Z,99838.06
2024-01-16T16:17:16.657Z,99841.34
2024-01-16T16:19:47.666Z,99852.72
2024-01-16T16:22:16.518Z,99843.56
2024-01-16T16:24:46.920Z,99845.38
2024-01-16T16:27:26.404Z,99851.88
2024-01-16T16:29:56.338Z,99858.75
2024-01-16T16:32:25.596Z,99853.66
2024-01-16T16:34:56.376Z,99841.50
2024-01-16T16:37:25.194Z,99840.56
2024-01-16T16:39:58.250Z,99849.84
2024-01-16T16:42:28.454Z,99844.84
2024-01-16T16:44:56.992Z,99849.56
2024-01-16T16:47:25.442Z,99853.44
2024-01-16T16:49:53.941Z,99857.19
2024-01-16T16:52:23.025Z,99855.97
2024-01-16T16:54:51.858Z,99849.53
2024-01-16T16:57:30.001Z,99848.50
2024-01-16T16:59:58.916Z,99841.28
2024-01-16T17:02:27.813Z,99846.47
2024-01-16T17:04:56.248Z,99842.16
2024-01-16T17:07:24.861Z,99841.22
2024-01-16T17:09:53.857Z,99837.41
2024-01-16T17:12:24.431Z,99838.69
2024-01-16T17:14:55.776Z,99842.69
2024-01-16T17:17:24.370Z,99841.22
2024-01-16T17:19:54.541Z,99835.16
2024-01-16T17:22:23.051Z,99833.34
2024-01-16T17:24:52.001Z,99830.03
2024-01-16T17:27:20.718Z,99829.00
2024-01-16T17:29:51.015Z,99833.16
2024-01-16T17:32:20.691Z,99827.34
2024-01-16T17:34:50.551Z,99824.72
2024-01-16T17:37:19.303Z,99820.06
2024-01-16T17:39:50.941Z,99828.34
2024-01-16T17:42:19.656Z,99823.25
2024-01-16T17:44:53.178Z,99817.72
2024-01-16T17:47:22.683Z,99819.09
2024-01-16T17:49:54.216Z,99818.16
2024-01-16T17:52:23.563Z,99813.81
2024-01-16T17:54:53.241Z,99815.34
2024-01-16T17:57:26.089Z,99814.81
2024-01-16T17:59:56.216Z,99814.63
2024-01-16T18:02:24.944Z,99809.84
2024-01-16T18:04:53.488Z,99813.28
2024-01-16T18:07:22.181Z,99809.66
2024-01-16T18:09:50.576Z,99801.19
2024-01-16T18:12:19.187Z,99792.66
2024-01-16T18:14:47.649Z,99788.16
2024-01-16T18:17:19.932Z,99788.47
2024-01-16T18:19:50.832Z,99776.78
2024-01-16T18:22:19.592Z,99777.72
2024-01-16T18:24:48.012Z,99775.75
2024-01-16T18:27:16.530Z,99767.06
2024-01-16T18:29:45.808Z,99755.03
2024-01-16T18:32:14.454Z,99765.38
2024-01-16T18:34:44.729Z,99764.88
2024-01-16T18:37:13.290Z,99762.66
2024-01-16T18:39:42.169Z,99767.84
2024-01-16T18:42:10.905Z,99765.03
2024-01-16T18:44:39.986Z,99766.94
2024-01-16T18:47:09.602Z,99768.50
2024-01-16T18:49:40.024Z,99754.25
2024-01-16T18:52:10.216Z,99741.06
2024-01-16T18:54:38.866Z,99738.34
2024-01-16T18:57:07.508Z,99736.63
2024-01-16T18:59:37.503Z,99739.25
2024-01-16T19:02:06.102Z,99741.56
2024-01-16T19:04:35.791Z,99730.13
2024-01-16T19:07:13.407Z,99735.16
2024-01-16T19:09:45.284Z,99722.09
2024-01-16T19:12:18.373Z,99734.00
2024-01-16T19:14:48.850Z,99730.31
2024-01-16T19:17:18.044Z,99722.97
2024-01-16T19:19:47.247Z,99731.47
2024-01-16T19:22:15.706Z,99734.50
2024-01-16T19:24:46.387Z,99734.66
2024-01-16T19:27:15.230Z,99730.47
2024-01-16T19:29:44.063Z,99728.50
2024-01-16T19:32:14.051Z,99727.03
2024-01-16T19:34:42.420Z,99724.25
2024-01-16T19:37:11.163Z,99718.88
2024-01-16T19:39:43.932Z,99710.28
2024-01-16T19:42:14.025Z,99705.97
2024-01-16T19:44:42.515Z,99708.06
2024-01-16T19:47:13.433Z,99698.66
2024-01-16T19:49:42.115Z,99707.59
2024-01-16T19:52:10.820Z,99699.25
2024-01-16T19:54:42.497Z,99704.09
2024-01-16T19:57:11.373Z,99694.38
2024-01-16T19:59:41.502Z,99690.06
2024-01-16T20:02:10.044Z,99687.78
2024-01-16T20:04:40.596Z,99685.06
2024-01-16T20:07:10.067Z,99687.56
2024-01-16T20:09:41.273Z,99672.44
2024-01-16T20:12:14.209Z,99675.78
2024-01-16T20:14:44.893Z,99667.28
2024-01-16T20:17:13.420Z,99661.31
2024-01-16T20:19:43.310Z,99651.66
2024-01-16T20:22:12.820Z,99644.66
2024-01-16T20:24:41.631Z,99645.44
2024-01-16T20:27:10.686Z,99649.09
2024-01-16T20:29:39.256Z,99642.22
2024-01-16T20:32:09.588Z,99642.06
2024-01-16T20:34:38.703Z,99640.81
2024-01-16T20:37:07.865Z,99647.38
2024-01-16T20:39:37.018Z,99644.16
2024-01-16T20:42:05.980Z,99638.13
2024-01-16T20:44:34.891Z,99636.31
2024-01-16T20:47:06.165Z,99648.59
2024-01-16T20:49:36.358Z,99642.47
2024-01-16T20:52:05.483Z,99645.09
2024-01-16T20:54:33.918Z,99643.47
2024-01-16T20:57:02.828Z,99648.56
2024-01-16T20:59:31.617Z,99651.09
2024-01-16T21:02:01.021Z,99644.53
2024-01-16T21:04:31.164Z,99643.50
2024-01-16T21:07:04.649Z,99640.75
2024-01-16T21:09:34.159Z,99634.91
2024-01-16T21:12:04.966Z,99638.97
2024-01-16T21:14:34.566Z,99639.16
2024-01-16T21:17:03.448Z,99634.78
2024-01-16T21:19:32.175Z,99634.84
2024-01-16T21:22:02.511Z,99628.28
2024-01-16T21:24:31.098Z,99640.66
2024-01-16T21:27:02.811Z,99630.50
2024-01-16T21:29:32.582Z,99627.16
2024-01-16T21:32:01.581Z,99630.50
2024-01-16T21:34:29.915Z,99624.75
2024-01-16T21:36:58.537Z,99620.34
2024-01-16T21:39:29.692Z,99617.09
2024-01-16T21:41:58.510Z,99612.50
2024-01-16T21:44:28.220Z,99616.00
2024-01-16T21:46:57.044Z,99614.03
2024-01-16T21:49:25.516Z,99602.13
2024-01-16T21:51:54.174Z,99596.28
2024-01-16T21:54:22.816Z,99589.34
2024-01-16T21:56:52.897Z,99576.25
2024-01-16T21:59:21.440Z,99568.38
2024-01-16T22:01:50.179Z,99560.47
2024-01-16T22:04:18.958Z,99568.47
2024-01-16T22:06:47.559Z,99561.44
2024-01-16T22:09:21.941Z,99547.19
2024-01-16T22:11:52.310Z,99537.28
2024-01-16T22:14:20.889Z,99530.88
2024-01-16T22:16:49.241Z,99526.03
2024-01-16T22:19:17.742Z,99526.38
2024-01-16T22:21:46.133Z,99521.31
2024-01-16T22:24:15.414Z,99519.72
2024-01-16T22:26:44.377Z,99524.50
2024-01-16T22:29:14.468Z,99516.38
2024-01-16T22:31:43.935Z,99522.75
2024-01-16T22:34:13.379Z,99515.09
2024-01-16T22:36:44.000Z,99514.47
2024-01-16T22:39:17.191Z,99513.22
2024-01-16T22:41:50.052Z,99505.97
2024-01-16T22:44:20.366Z,99497.00
2024-01-16T22:46:49.080Z,99494.19
2024-01-16T22:49:17.722Z,99494.50
2024-01-16T22:51:46.183Z,99486.31
2024-01-16T22:54:14.748Z,99484.69
2024-01-16T22:56:43.185Z,99476.75
2024-01-16T22:59:11.656Z,99472.47
2024-01-16T23:01:44.346Z,99472.84
2024-01-16T23:04:12.859Z,99474.88
2024-01-16T23:06:42.674Z,99475.50
2024-01-16T23:09:11.178Z,99465.59
2024-01-16T23:11:40.790Z,99467.28
2024-01-16T23:14:09.305Z,99457.91
2024-01-16T23:16:39.329Z,99448.81
2024-01-16T23:19:11.766Z,99443.94
2024-01-16T23:21:40.646Z,99449.50
2024-01-16T23:24:09.328Z,99450.06
2024-01-16T23:26:38.323Z,99452.81
2024-01-16T23:29:06.914Z,99450.34
2024-01-16T23:31:35.679Z,99443.13
2024-01-16T23:34:04.114Z,99438.69
2024-01-16T23:36:34.328Z,99434.00
2024-01-16T23:39:02.884Z,99427.53
2024-01-16T23:41:31.642Z,99418.66
2024-01-16T23:44:01.767Z,99417.97
2024-01-16T23:46:30.592Z,99415.31
2024-01-16T23:49:01.228Z,99401.28
2024-01-16T23:51:32.329Z,99406.44
2024-01-16T23:54:03.659Z,99406.69
2024-01-16T23:56:32.567Z,99407.25
2024-01-16T23:59:01.023Z,99401.78
